Time;durP1;ratioP1;P1;durP2;ratioP2;P2;SDS_P1;SDS_P2;PMS_P1;PMS_P2;Temp;Humidity;BMP_temperature;BMP_pressure;BME280_temperature;BME280_humidity;BME280_pressure;Samples;Min_cycle;Max_cycle;Signal;HPM_P1;HPM_P2
2022/12/21 00:02:17;;;;;;;1.05;0.50;;;22.90;53.40;;;;;;4047041;29;20478;-45
2022/12/21 00:04:39;;;;;;;0.63;0.50;;;22.90;53.40;;;;;;4050735;29;20484;-52
2022/12/21 00:07:02;;;;;;;1.45;0.80;;;22.90;53.30;;;;;;4051883;29;20048;-49
2022/12/21 00:09:24;;;;;;;2.03;0.80;;;22.90;53.30;;;;;;4058903;29;20204;-48
2022/12/21 00:11:47;;;;;;;1.10;0.47;;;23.00;53.30;;;;;;4050800;29;20033;-51
2022/12/21 00:14:09;;;;;;;1.17;0.60;;;23.00;53.30;;;;;;4057809;29;20099;-50
2022/12/21 00:16:34;;;;;;;1.10;0.60;;;23.00;53.30;;;;;;4055844;29;20586;-50
2022/12/21 00:18:58;;;;;;;0.50;0.40;;;23.00;53.30;;;;;;4048826;29;20040;-49
2022/12/21 00:21:23;;;;;;;0.82;0.45;;;23.00;53.20;;;;;;4057547;29;20111;-48
2022/12/21 00:23:47;;;;;;;1.45;0.50;;;23.00;53.20;;;;;;4055825;29;20104;-47
2022/12/21 00:26:11;;;;;;;0.77;0.47;;;23.00;53.10;;;;;;4042695;29;20401;-51
2022/12/21 00:28:34;;;;;;;0.43;0.40;;;23.00;53.80;;;;;;4053106;29;20052;-50
2022/12/21 00:31:04;;;;;;;0.90;0.52;;;23.00;53.00;;;;;;4053013;29;20092;-50
2022/12/21 00:33:27;;;;;;;1.23;0.50;;;23.10;53.70;;;;;;4045673;29;20376;-49
2022/12/21 00:35:53;;;;;;;0.82;0.50;;;23.10;53.00;;;;;;4056347;29;20122;-48
2022/12/21 00:38:16;;;;;;;0.65;0.40;;;23.10;52.90;;;;;;4046934;29;20436;-46
2022/12/21 00:40:38;;;;;;;0.97;0.57;;;23.10;52.90;;;;;;4058620;29;20047;-46
2022/12/21 00:43:01;;;;;;;1.75;0.73;;;23.10;52.90;;;;;;4057404;29;20036;-50
2022/12/21 00:45:23;;;;;;;0.73;0.45;;;23.10;52.90;;;;;;4047549;29;20052;-48
2022/12/21 00:47:45;;;;;;;0.95;0.52;;;23.10;52.80;;;;;;4050247;29;20499;-51
2022/12/21 00:50:08;;;;;;;1.10;0.47;;;23.20;52.80;;;;;;4058902;29;20040;-48
2022/12/21 00:52:31;;;;;;;1.27;0.60;;;23.20;52.80;;;;;;4055464;29;20054;-48
2022/12/21 00:54:53;;;;;;;1.13;0.50;;;23.20;52.70;;;;;;4055984;29;20047;-47
2022/12/21 00:57:16;;;;;;;0.88;0.50;;;23.20;52.80;;;;;;4059399;29;20043;-50
2022/12/21 00:59:38;;;;;;;0.38;0.38;;;23.20;52.70;;;;;;4051443;29;20429;-46
2022/12/21 01:02:00;;;;;;;1.35;0.57;;;23.20;52.70;;;;;;4053979;29;20042;-49
2022/12/21 01:04:23;;;;;;;0.55;0.40;;;23.20;52.70;;;;;;4050838;29;20512;-47
2022/12/21 01:06:45;;;;;;;0.75;0.47;;;23.20;52.60;;;;;;4052719;29;20596;-49
2022/12/21 01:09:08;;;;;;;0.90;0.60;;;23.20;52.50;;;;;;4051245;29;20072;-47
2022/12/21 01:11:30;;;;;;;0.75;0.50;;;23.20;52.50;;;;;;4049502;29;20063;-48
2022/12/21 01:13:54;;;;;;;0.43;0.40;;;23.20;52.50;;;;;;4052122;29;20044;-50
2022/12/21 01:16:28;;;;;;;0.40;0.40;;;23.30;52.50;;;;;;4057963;29;20518;-51
2022/12/21 01:18:51;;;;;;;0.85;0.57;;;23.30;52.50;;;;;;4058481;29;20083;-46
2022/12/21 01:21:22;;;;;;;1.23;0.50;;;23.30;52.50;;;;;;4057112;29;20045;-47
2022/12/21 01:23:45;;;;;;;0.57;0.30;;;23.30;52.40;;;;;;4055237;29;20036;-50
2022/12/21 01:26:07;;;;;;;0.88;0.40;;;23.30;52.30;;;;;;4055359;29;20040;-50
2022/12/21 01:28:30;;;;;;;1.55;0.40;;;23.30;52.30;;;;;;4049196;29;20483;-50
2022/12/21 01:30:52;;;;;;;0.65;0.43;;;23.30;52.20;;;;;;4051573;29;20059;-48
2022/12/21 01:33:18;;;;;;;0.60;0.30;;;23.30;52.20;;;;;;4056538;29;20449;-52
2022/12/21 01:35:41;;;;;;;0.35;0.30;;;23.30;52.20;;;;;;4048207;29;20055;-52
2022/12/21 01:38:03;;;;;;;0.67;0.40;;;23.30;52.10;;;;;;4048401;29;20043;-48
2022/12/21 01:40:30;;;;;;;0.38;0.30;;;23.40;52.20;;;;;;4048941;29;20327;-47
2022/12/21 01:42:52;;;;;;;0.30;0.30;;;23.40;52.10;;;;;;4057554;29;20047;-49
2022/12/21 01:45:31;;;;;;;0.30;0.20;;;23.40;52.10;;;;;;4059487;29;20052;-47
2022/12/21 01:48:02;;;;;;;0.95;0.40;;;23.40;52.10;;;;;;4053557;29;20050;-50
2022/12/21 01:50:59;;;;;;;0.50;0.40;;;23.40;52.00;;;;;;4055602;29;20068;-47
2022/12/21 01:53:25;;;;;;;0.50;0.30;;;23.40;52.00;;;;;;4057779;29;20067;-50
2022/12/21 01:55:51;;;;;;;1.05;0.38;;;23.40;52.00;;;;;;4051449;29;20160;-48
2022/12/21 01:58:14;;;;;;;0.30;0.30;;;23.50;51.90;;;;;;4057273;29;20539;-48
2022/12/21 02:00:37;;;;;;;0.47;0.40;;;23.40;51.90;;;;;;4057573;29;20788;-48
2022/12/21 02:03:04;;;;;;;1.17;0.40;;;23.40;51.80;;;;;;4058886;29;20393;-46
2022/12/21 02:05:54;;;;;;;0.32;0.30;;;23.50;51.90;;;;;;4052340;29;20067;-50
2022/12/21 02:08:16;;;;;;;0.30;0.30;;;23.50;51.80;;;;;;4055374;29;20127;-49
2022/12/21 02:10:39;;;;;;;0.68;0.50;;;23.50;51.80;;;;;;4050685;29;20039;-47
2022/12/21 02:13:11;;;;;;;0.30;0.30;;;23.50;51.80;;;;;;4054801;29;20043;-47
2022/12/21 02:15:52;;;;;;;0.45;0.20;;;23.50;51.70;;;;;;4052562;29;20048;-48
2022/12/21 02:18:24;;;;;;;0.22;0.22;;;23.50;51.70;;;;;;4055852;29;20494;-50
2022/12/21 02:21:09;;;;;;;0.20;0.20;;;23.60;51.70;;;;;;4044841;29;20053;-46
2022/12/21 02:23:35;;;;;;;0.55;0.30;;;23.60;51.70;;;;;;4054580;29;20039;-46
2022/12/21 02:26:30;;;;;;;0.40;0.25;;;23.60;51.70;;;;;;4052116;29;20045;-51
2022/12/21 02:29:21;;;;;;;0.40;0.40;;;23.60;51.70;;;;;;4053667;29;20098;-52
2022/12/21 02:32:13;;;;;;;0.35;0.35;;;23.60;51.60;;;;;;4048254;29;20044;-51
2022/12/21 02:34:59;;;;;;;0.82;0.40;;;23.60;51.60;;;;;;4054596;29;20076;-48
2022/12/21 02:37:31;;;;;;;0.30;0.22;;;23.60;51.50;;;;;;4041062;29;20049;-46
2022/12/21 02:40:18;;;;;;;0.30;0.30;;;23.60;51.50;;;;;;4057732;29;20036;-48
2022/12/21 02:45:56;;;;;;;0.30;0.20;;;23.70;51.50;;;;;;4055033;29;20124;-46
2022/12/21 02:48:18;;;;;;;;;;;23.60;51.40;;;;;;4052136;29;20059;-49
2022/12/21 02:50:45;;;;;;;0.55;0.20;;;23.70;51.50;;;;;;4057144;29;20006;-52
2022/12/21 02:53:17;;;;;;;0.30;0.30;;;23.70;51.40;;;;;;4057242;29;20032;-52
2022/12/21 02:55:39;;;;;;;1.02;0.25;;;23.70;51.40;;;;;;4052445;29;20044;-46
2022/12/21 02:58:18;;;;;;;0.22;0.22;;;23.70;51.40;;;;;;4054277;29;20167;-47
2022/12/21 03:00:52;;;;;;;0.20;0.20;;;23.70;51.40;;;;;;4059222;29;20036;-46
2022/12/21 03:03:59;;;;;;;0.30;0.30;;;23.80;51.40;;;;;;4057799;29;20484;-46
2022/12/21 03:06:35;;;;;;;0.55;0.40;;;23.70;51.30;;;;;;4038666;29;20041;-49
2022/12/21 03:09:18;;;;;;;0.93;0.40;;;23.80;51.30;;;;;;4041053;29;20068;-46
2022/12/21 03:11:43;;;;;;;0.50;0.25;;;23.80;51.30;;;;;;4054294;29;20046;-46
2022/12/21 03:14:17;;;;;;;0.38;0.20;;;23.80;51.30;;;;;;4059175;29;20079;-47
2022/12/21 03:16:52;;;;;;;0.40;0.27;;;23.80;51.20;;;;;;4054760;29;20131;-47
2022/12/21 03:19:14;;;;;;;0.35;0.30;;;23.80;51.20;;;;;;4060018;29;20051;-49
2022/12/21 03:21:48;;;;;;;0.20;0.20;;;23.80;51.10;;;;;;4061431;29;20092;-46
2022/12/21 03:24:26;;;;;;;0.43;0.30;;;23.80;51.10;;;;;;4058107;29;20463;-46
2022/12/21 03:27:04;;;;;;;0.35;0.20;;;23.90;51.10;;;;;;4059383;29;20084;-47
2022/12/21 03:29:34;;;;;;;0.20;0.20;;;23.80;51.00;;;;;;4058005;29;20032;-46
2022/12/21 03:32:02;;;;;;;0.30;0.25;;;23.90;51.00;;;;;;4059643;29;20078;-49
2022/12/21 03:34:29;;;;;;;0.20;0.20;;;23.90;51.00;;;;;;4053178;29;20043;-52
2022/12/21 03:37:09;;;;;;;0.80;0.30;;;23.90;51.00;;;;;;4057800;29;20044;-48
2022/12/21 03:39:36;;;;;;;0.25;0.20;;;23.90;51.50;;;;;;4060332;29;20377;-49
2022/12/21 03:42:08;;;;;;;0.20;0.20;;;24.00;50.90;;;;;;4058247;29;20036;-47
2022/12/21 03:44:43;;;;;;;0.20;0.20;;;24.00;50.80;;;;;;4061285;29;20052;-47
2022/12/21 03:47:08;;;;;;;;;;;24.00;50.70;;;;;;4059339;29;20504;-46
2022/12/21 03:49:36;;;;;;;0.32;0.30;;;24.00;50.70;;;;;;4051563;29;19915;-45
2022/12/21 03:52:08;;;;;;;0.25;0.22;;;24.00;50.70;;;;;;4047651;29;20278;-51
2022/12/21 03:54:37;;;;;;;0.52;0.25;;;24.00;50.70;;;;;;4040749;29;20551;-45
2022/12/21 03:56:59;;;;;;;0.20;0.20;;;24.10;50.70;;;;;;4051713;29;20163;-48
2022/12/21 03:59:22;;;;;;;0.30;0.20;;;24.10;50.70;;;;;;4054315;29;20127;-45
2022/12/21 04:02:08;;;;;;;0.40;0.30;;;24.10;50.60;;;;;;4049593;29;20106;-46
2022/12/21 04:04:40;;;;;;;0.55;0.30;;;24.10;50.60;;;;;;4049672;29;20509;-46
2022/12/21 04:07:07;;;;;;;0.32;0.20;;;24.20;50.60;;;;;;4053210;29;20138;-48
2022/12/21 04:09:29;;;;;;;0.30;0.30;;;24.20;50.60;;;;;;4055219;29;20887;-47
2022/12/21 04:14:34;;;;;;;0.30;0.30;;;24.20;50.50;;;;;;4051361;29;20036;-47
2022/12/21 04:16:56;;;;;;;0.20;0.20;;;24.30;50.50;;;;;;4045083;29;20583;-50
2022/12/21 04:21:59;;;;;;;0.82;0.38;;;24.40;50.40;;;;;;4046710;29;20036;-45
2022/12/21 04:29:43;;;;;;;0.20;0.20;;;24.50;50.20;;;;;;4044153;29;20037;-48
2022/12/21 04:32:05;;;;;;;0.13;0.13;;;24.60;50.20;;;;;;4051033;29;20091;-48
2022/12/21 04:34:28;;;;;;;0.35;0.30;;;24.60;50.10;;;;;;4046591;29;20110;-48
2022/12/21 04:39:31;;;;;;;1.20;0.30;;;24.70;50.00;;;;;;4059845;29;20073;-47
2022/12/21 04:41:54;;;;;;;0.75;0.40;;;24.80;50.00;;;;;;4045915;29;20153;-47
2022/12/21 04:44:19;;;;;;;0.43;0.22;;;24.80;49.90;;;;;;4055665;29;20045;-48
2022/12/21 04:46:42;;;;;;;0.68;0.35;;;24.80;49.80;;;;;;4058151;29;20051;-49
2022/12/21 04:49:04;;;;;;;0.32;0.30;;;24.90;49.80;;;;;;4054805;29;20040;-50
2022/12/21 04:51:27;;;;;;;1.17;0.50;;;24.90;49.70;;;;;;4052499;29;20043;-51
2022/12/21 04:53:51;;;;;;;0.35;0.20;;;25.00;49.70;;;;;;4042286;29;20503;-50
2022/12/21 04:56:14;;;;;;;0.57;0.30;;;25.10;49.60;;;;;;4048128;29;20032;-52
2022/12/21 04:58:37;;;;;;;0.68;0.30;;;25.10;49.50;;;;;;4049915;29;20040;-48
2022/12/21 05:01:02;;;;;;;1.08;0.40;;;25.20;49.70;;;;;;4051849;29;20488;-47
2022/12/21 05:03:24;;;;;;;1.15;0.32;;;25.30;49.50;;;;;;4054969;29;20082;-48
2022/12/21 05:05:47;;;;;;;0.52;0.30;;;25.30;49.40;;;;;;4054612;29;20754;-50
2022/12/21 05:08:10;;;;;;;0.30;0.30;;;25.40;49.40;;;;;;4056428;29;20074;-51
2022/12/21 05:10:32;;;;;;;0.57;0.30;;;25.40;49.30;;;;;;4055367;29;20052;-50
2022/12/21 05:12:55;;;;;;;0.85;0.30;;;25.40;49.20;;;;;;4058909;29;20411;-48
2022/12/21 05:15:17;;;;;;;1.08;0.32;;;25.50;49.20;;;;;;4053393;29;20044;-51
2022/12/21 05:17:40;;;;;;;1.05;0.50;;;25.50;49.10;;;;;;4053995;29;20051;-48
2022/12/21 05:20:03;;;;;;;1.25;0.35;;;25.60;49.00;;;;;;4057231;29;20040;-49
2022/12/21 05:22:25;;;;;;;0.52;0.30;;;25.70;48.90;;;;;;4049284;29;20137;-47
2022/12/21 05:24:48;;;;;;;0.70;0.40;;;25.70;48.80;;;;;;4052338;29;20047;-49
2022/12/21 05:27:11;;;;;;;0.93;0.30;;;25.70;48.60;;;;;;4052000;29;20060;-51
2022/12/21 05:29:34;;;;;;;0.85;0.40;;;25.80;48.60;;;;;;4055274;29;20123;-48
2022/12/21 05:31:56;;;;;;;0.70;0.32;;;25.90;48.60;;;;;;4055845;29;20319;-49
2022/12/21 05:34:19;;;;;;;1.70;0.50;;;25.90;48.50;;;;;;4045166;29;20044;-51
2022/12/21 05:36:41;;;;;;;0.63;0.30;;;26.00;48.40;;;;;;4043296;29;20041;-50
2022/12/21 05:39:03;;;;;;;1.13;0.50;;;26.00;48.40;;;;;;4055256;29;20127;-46
2022/12/21 05:41:26;;;;;;;1.85;0.40;;;26.10;48.30;;;;;;4058745;29;20044;-51
2022/12/21 05:43:48;;;;;;;0.47;0.20;;;26.10;48.20;;;;;;4047995;29;20048;-46
2022/12/21 05:46:12;;;;;;;0.57;0.30;;;26.20;48.30;;;;;;4050028;29;20040;-47
2022/12/21 05:48:35;;;;;;;0.85;0.30;;;26.20;48.80;;;;;;4056425;29;20131;-49
2022/12/21 05:50:58;;;;;;;0.70;0.40;;;26.20;48.10;;;;;;4047616;29;20491;-49
2022/12/21 05:53:20;;;;;;;1.20;0.73;;;26.30;48.70;;;;;;4042008;29;20375;-52
2022/12/21 05:55:44;;;;;;;0.85;0.30;;;26.30;48.00;;;;;;4056013;29;20751;-47
2022/12/21 05:58:06;;;;;;;1.13;0.38;;;26.40;47.90;;;;;;4059048;29;20461;-51
2022/12/21 06:00:29;;;;;;;1.48;0.65;;;26.50;47.90;;;;;;4054397;29;20044;-51
2022/12/21 06:11:52;;;;;;;0.47;0.28;;;27.00;47.50;;;;;;4075261;23;20088;-44
2022/12/21 06:17:13;;;;;;;0.40;0.30;;;27.10;47.30;;;;;;4082237;29;20059;-43
2022/12/21 06:19:35;;;;;;;0.52;0.32;;;27.30;47.20;;;;;;4078744;29;20095;-42
2022/12/21 06:24:43;;;;;;;0.20;0.20;;;27.40;47.00;;;;;;4039053;29;20182;-45
2022/12/21 06:27:08;;;;;;;0.40;0.30;;;27.40;46.90;;;;;;4065207;29;20051;-44
2022/12/21 06:29:30;;;;;;;0.45;0.30;;;27.50;47.00;;;;;;4066024;29;20047;-44
2022/12/21 06:34:02;;;;;;;0.35;0.20;;;27.60;46.90;;;;;;4071208;23;20052;-43
2022/12/21 07:04:39;;;;;;;0.45;0.30;;;27.50;47.30;;;;;;4615754;23;20127;-38
2022/12/21 07:07:02;;;;;;;0.30;0.30;;;27.40;47.30;;;;;;4042025;29;20047;-39
2022/12/21 07:09:24;;;;;;;0.20;0.20;;;27.30;47.40;;;;;;4048428;29;20044;-39
2022/12/21 07:11:47;;;;;;;0.30;0.30;;;27.30;47.50;;;;;;4049830;29;20114;-41
2022/12/21 07:14:09;;;;;;;0.15;0.15;;;27.30;47.60;;;;;;4077675;23;20442;-48
2022/12/21 07:16:32;;;;;;;0.20;0.20;;;27.20;47.60;;;;;;4074246;29;20044;-47
2022/12/21 07:18:54;;;;;;;0.43;0.40;;;27.20;47.70;;;;;;4066314;29;20063;-48
2022/12/21 07:21:19;;;;;;;0.20;0.20;;;27.20;47.70;;;;;;4069266;29;20131;-45
2022/12/21 07:23:42;;;;;;;0.10;0.10;;;27.20;47.80;;;;;;4073023;29;20395;-44
2022/12/21 07:26:09;;;;;;;0.40;0.40;;;27.20;47.80;;;;;;4072333;29;20452;-46
2022/12/21 07:28:31;;;;;;;0.75;0.40;;;27.10;47.70;;;;;;4074950;29;20150;-48
2022/12/21 07:31:04;;;;;;;0.20;0.20;;;27.10;47.80;;;;;;4068419;29;20051;-46
2022/12/21 07:33:27;;;;;;;0.30;0.30;;;27.10;47.80;;;;;;4072217;29;20149;-45
2022/12/21 07:35:49;;;;;;;0.52;0.30;;;27.10;47.80;;;;;;4071526;29;20216;-46
2022/12/21 07:38:12;;;;;;;0.57;0.20;;;27.10;47.80;;;;;;4075899;29;20051;-48
2022/12/21 07:40:34;;;;;;;0.22;0.22;;;27.10;47.90;;;;;;4074557;29;20272;-46
2022/12/21 07:42:57;;;;;;;0.93;0.40;;;27.00;47.90;;;;;;4074900;29;20125;-43
2022/12/21 07:45:19;;;;;;;0.30;0.30;;;27.00;47.90;;;;;;4349681;23;20060;-45
2022/12/21 07:47:42;;;;;;;0.50;0.45;;;27.00;48.00;;;;;;4068300;29;20508;-49
2022/12/21 07:50:06;;;;;;;0.38;0.38;;;26.90;48.00;;;;;;4068936;29;20079;-50
2022/12/21 07:52:30;;;;;;;0.68;0.35;;;26.90;48.10;;;;;;4068985;29;20086;-49
2022/12/21 07:54:52;;;;;;;;;;;26.90;48.10;;;;;;4060676;29;20416;-46
2022/12/21 07:57:14;;;;;;;0.32;0.32;;;26.90;48.20;;;;;;4069646;29;19911;-51
2022/12/21 07:59:37;;;;;;;0.20;0.20;;;26.80;48.20;;;;;;4067138;29;21104;-51
2022/12/21 08:01:59;;;;;;;0.45;0.32;;;26.80;48.20;;;;;;4064460;29;20657;-49
2022/12/21 08:04:21;;;;;;;0.30;0.30;;;26.80;48.20;;;;;;4071169;29;20094;-51
2022/12/21 08:06:45;;;;;;;0.20;0.20;;;26.80;48.20;;;;;;4069410;29;20042;-45
2022/12/21 08:09:07;;;;;;;0.32;0.30;;;26.80;48.20;;;;;;4065011;29;20047;-50
2022/12/21 08:11:30;;;;;;;0.25;0.25;;;26.70;48.20;;;;;;4066846;29;20040;-51
2022/12/21 08:13:52;;;;;;;0.40;0.30;;;26.70;48.30;;;;;;4065851;29;20036;-53
2022/12/21 08:16:18;;;;;;;0.38;0.30;;;26.70;48.40;;;;;;4064760;29;20043;-45
2022/12/21 08:18:40;;;;;;;0.43;0.43;;;26.60;48.40;;;;;;4067786;29;20380;-51
2022/12/21 08:21:03;;;;;;;0.20;0.20;;;26.70;48.50;;;;;;4070606;29;20110;-50
2022/12/21 08:23:26;;;;;;;0.20;0.20;;;26.60;48.40;;;;;;4067958;29;20043;-45
2022/12/21 08:25:49;;;;;;;0.20;0.20;;;26.60;48.40;;;;;;4070177;29;20517;-48
2022/12/21 08:28:12;;;;;;;0.40;0.30;;;26.60;48.50;;;;;;4068267;29;20051;-50
2022/12/21 08:30:34;;;;;;;0.75;0.57;;;26.50;48.60;;;;;;4070873;29;20047;-51
2022/12/21 08:32:57;;;;;;;0.30;0.20;;;26.60;48.60;;;;;;4069763;29;20035;-49
2022/12/21 08:35:19;;;;;;;0.20;0.20;;;26.50;48.50;;;;;;4069772;29;20030;-48
2022/12/21 08:37:42;;;;;;;0.68;0.38;;;26.50;48.50;;;;;;4068343;29;20086;-47
2022/12/21 08:40:05;;;;;;;0.20;0.20;;;26.50;48.50;;;;;;4059560;29;20098;-48
2022/12/21 08:42:27;;;;;;;0.20;0.20;;;26.50;48.60;;;;;;4063026;29;20048;-44
2022/12/21 08:44:50;;;;;;;0.32;0.30;;;26.40;48.60;;;;;;4061473;29;20503;-46
2022/12/21 08:47:12;;;;;;;0.80;0.30;;;26.40;48.60;;;;;;4063255;29;20047;-50
2022/12/21 08:49:34;;;;;;;0.40;0.30;;;26.40;48.60;;;;;;4062382;29;20292;-49
2022/12/21 08:51:57;;;;;;;0.70;0.30;;;26.30;48.60;;;;;;4056482;29;20439;-50
2022/12/21 08:54:19;;;;;;;0.90;0.45;;;26.40;48.70;;;;;;4062003;29;20040;-45
2022/12/21 08:56:42;;;;;;;0.57;0.30;;;26.30;48.60;;;;;;4061125;29;20054;-49
2022/12/21 08:59:07;;;;;;;0.52;0.20;;;26.30;48.80;;;;;;4055383;29;20047;-50
2022/12/21 09:01:30;;;;;;;0.20;0.20;;;26.30;48.80;;;;;;4058511;29;20409;-48
2022/12/21 09:03:53;;;;;;;0.63;0.40;;;26.20;48.80;;;;;;4062803;29;20055;-45
2022/12/21 09:06:15;;;;;;;0.25;0.20;;;26.20;48.80;;;;;;4061395;29;20114;-49
2022/12/21 09:08:39;;;;;;;0.30;0.30;;;26.20;48.70;;;;;;4063123;29;20055;-46
2022/12/21 09:11:10;;;;;;;0.47;0.30;;;26.20;48.80;;;;;;4057807;29;20028;-49
2022/12/21 09:13:32;;;;;;;0.28;0.28;;;26.20;48.80;;;;;;4060525;29;20369;-46
2022/12/21 09:15:55;;;;;;;0.32;0.30;;;26.20;48.80;;;;;;4061843;29;20036;-52
2022/12/21 09:18:18;;;;;;;0.30;0.30;;;26.20;48.80;;;;;;4056760;29;20096;-47
2022/12/21 09:20:41;;;;;;;0.35;0.30;;;26.20;48.80;;;;;;4061519;29;20522;-46
2022/12/21 09:23:03;;;;;;;0.20;0.20;;;26.10;48.70;;;;;;4057874;29;20135;-47
2022/12/21 09:25:26;;;;;;;0.82;0.40;;;26.10;48.80;;;;;;4061902;29;20392;-45
2022/12/21 09:27:48;;;;;;;0.68;0.20;;;26.10;48.80;;;;;;4058832;29;20048;-48
2022/12/21 09:30:11;;;;;;;0.40;0.30;;;26.10;48.80;;;;;;4059120;29;20032;-45
2022/12/21 09:32:34;;;;;;;0.77;0.35;;;26.10;48.80;;;;;;4057314;29;20066;-46
2022/12/21 09:34:56;;;;;;;0.35;0.35;;;26.00;48.80;;;;;;4056623;29;20054;-45
2022/12/21 09:37:19;;;;;;;0.30;0.30;;;26.00;48.80;;;;;;4054724;29;20032;-50
2022/12/21 09:39:41;;;;;;;0.60;0.30;;;26.00;48.90;;;;;;4055106;29;20407;-47
2022/12/21 09:42:06;;;;;;;0.43;0.20;;;26.00;48.90;;;;;;4063402;29;20051;-51
2022/12/21 09:44:36;;;;;;;0.20;0.20;;;26.00;48.90;;;;;;4059728;29;20049;-49
2022/12/21 09:47:03;;;;;;;0.57;0.32;;;25.90;48.90;;;;;;4052361;29;20051;-48
2022/12/21 09:49:39;;;;;;;0.20;0.20;;;25.90;48.90;;;;;;4058738;29;20051;-48
2022/12/21 09:52:06;;;;;;;0.40;0.30;;;25.90;49.00;;;;;;4058395;29;20032;-48
2022/12/21 09:54:39;;;;;;;0.20;0.20;;;25.90;49.00;;;;;;4057772;29;20130;-49
2022/12/21 09:57:03;;;;;;;0.30;0.28;;;25.90;49.00;;;;;;4061279;29;20601;-48
2022/12/21 09:59:26;;;;;;;0.20;0.20;;;25.80;49.00;;;;;;4055446;29;20444;-49
2022/12/21 10:01:51;;;;;;;0.25;0.22;;;25.80;49.00;;;;;;4061308;29;20035;-49
2022/12/21 10:04:37;;;;;;;0.45;0.30;;;25.80;49.00;;;;;;4059580;29;20035;-49
2022/12/21 10:07:05;;;;;;;0.45;0.20;;;25.80;49.10;;;;;;4059118;29;20123;-48
2022/12/21 10:09:35;;;;;;;0.30;0.30;;;25.80;49.20;;;;;;4060297;29;20057;-46
2022/12/21 10:12:25;;;;;;;0.70;0.20;;;25.70;49.10;;;;;;4061224;29;20099;-48
2022/12/21 10:15:11;;;;;;;0.20;0.20;;;25.70;49.10;;;;;;4061044;29;20054;-47
2022/12/21 10:17:58;;;;;;;0.35;0.30;;;25.70;49.10;;;;;;4060502;29;20044;-47
2022/12/21 10:20:57;;;;;;;0.57;0.45;;;25.70;49.80;;;;;;4062354;29;20336;-48
2022/12/21 10:23:26;;;;;;;0.40;0.30;;;25.70;49.20;;;;;;4060840;29;20044;-45
2022/12/21 10:25:55;;;;;;;0.43;0.38;;;25.70;49.20;;;;;;4060036;29;20146;-49
2022/12/21 10:28:38;;;;;;;0.35;0.25;;;25.70;49.30;;;;;;4062163;29;20056;-48
2022/12/21 10:31:09;;;;;;;0.80;0.50;;;25.60;49.20;;;;;;4062331;29;20502;-49
2022/12/21 10:33:35;;;;;;;0.45;0.30;;;25.60;49.20;;;;;;4063413;29;20432;-52
2022/12/21 10:36:03;;;;;;;0.20;0.13;;;25.60;49.30;;;;;;4064119;29;20035;-48
2022/12/21 10:38:29;;;;;;;0.40;0.22;;;25.60;49.40;;;;;;4063363;29;20074;-46
2022/12/21 10:40:54;;;;;;;0.30;0.30;;;25.60;49.40;;;;;;4062720;29;20043;-51
2022/12/21 10:43:17;;;;;;;0.25;0.25;;;25.60;49.40;;;;;;4063357;29;20103;-52
2022/12/21 10:45:40;;;;;;;0.20;0.20;;;25.50;49.30;;;;;;4064962;29;20043;-50
2022/12/21 10:48:02;;;;;;;0.30;0.30;;;25.50;49.30;;;;;;4063698;29;20114;-44
2022/12/21 10:50:34;;;;;;;0.50;0.40;;;25.50;49.40;;;;;;4062522;29;20051;-48
2022/12/21 10:53:18;;;;;;;0.20;0.20;;;25.50;49.40;;;;;;4058544;29;20040;-46
2022/12/21 10:55:40;;;;;;;0.38;0.20;;;25.50;49.50;;;;;;4063480;29;20047;-50
2022/12/21 10:58:19;;;;;;;0.28;0.28;;;25.40;49.40;;;;;;4065358;29;20039;-49
2022/12/21 11:01:08;;;;;;;0.28;0.22;;;25.40;49.50;;;;;;4064904;29;20481;-51
2022/12/21 11:03:39;;;;;;;0.55;0.30;;;25.40;49.40;;;;;;4065951;29;20036;-51
2022/12/21 11:06:19;;;;;;;0.30;0.30;;;25.40;49.50;;;;;;4071274;29;20032;-51
2022/12/21 11:08:51;;;;;;;0.50;0.20;;;25.40;49.60;;;;;;4071730;29;20215;-52
2022/12/21 11:11:36;;;;;;;0.60;0.30;;;25.40;49.20;;;;;;4071458;29;20032;-46
2022/12/21 11:14:12;;;;;;;0.40;0.40;;;25.40;49.60;;;;;;4065486;29;20043;-47
2022/12/21 11:16:35;;;;;;;0.30;0.30;;;25.40;49.50;;;;;;4065787;29;20614;-46
2022/12/21 11:19:03;;;;;;;0.55;0.30;;;25.30;49.60;;;;;;4065621;29;20142;-48
2022/12/21 11:21:55;;;;;;;0.43;0.25;;;25.30;49.50;;;;;;4066763;29;20039;-49
2022/12/21 11:24:26;;;;;;;0.20;0.15;;;25.30;49.60;;;;;;4065200;29;20055;-49
2022/12/21 11:27:04;;;;;;;0.25;0.25;;;25.30;49.60;;;;;;4061172;29;20047;-44
2022/12/21 11:29:33;;;;;;;0.47;0.40;;;25.30;49.60;;;;;;4059820;29;20047;-44
2022/12/21 11:32:03;;;;;;;0.25;0.22;;;25.30;49.70;;;;;;4066683;29;20043;-45
2022/12/21 11:34:38;;;;;;;0.43;0.38;;;25.20;49.60;;;;;;4066002;29;20507;-47
2022/12/21 11:37:23;;;;;;;0.30;0.30;;;25.20;49.70;;;;;;4070311;29;20044;-49
2022/12/21 11:39:45;;;;;;;0.52;0.32;;;25.20;49.70;;;;;;4067395;29;20055;-49
2022/12/21 11:42:20;;;;;;;0.47;0.30;;;25.20;49.70;;;;;;4070320;29;20039;-51
2022/12/21 11:44:42;;;;;;;;;;;25.20;49.70;;;;;;4071500;29;20082;-45
2022/12/21 11:47:20;;;;;;;0.17;0.17;;;25.20;49.80;;;;;;4064273;29;20005;-44
2022/12/21 11:50:03;;;;;;;0.38;0.32;;;25.10;49.60;;;;;;4071867;29;20035;-45
2022/12/21 11:52:56;;;;;;;0.43;0.30;;;25.10;49.70;;;;;;4066354;29;20474;-44
2022/12/21 11:55:50;;;;;;;0.20;0.20;;;25.10;50.10;;;;;;4065709;29;20130;-43
2022/12/21 11:58:32;;;;;;;0.57;0.28;;;25.10;49.80;;;;;;4062113;29;20579;-47
2022/12/21 12:01:02;;;;;;;0.30;0.30;;;25.10;49.80;;;;;;4067650;29;20043;-45
2022/12/21 12:03:33;;;;;;;0.45;0.30;;;25.10;49.80;;;;;;4068804;29;20039;-49
2022/12/21 12:06:26;;;;;;;0.20;0.20;;;25.10;49.80;;;;;;4069852;29;20123;-45
2022/12/21 12:09:02;;;;;;;0.30;0.30;;;25.00;49.80;;;;;;4069382;29;20044;-45
2022/12/21 12:12:03;;;;;;;0.20;0.20;;;25.00;49.80;;;;;;4065987;29;20441;-47
2022/12/21 12:14:41;;;;;;;0.25;0.20;;;25.00;49.90;;;;;;4069889;29;20078;-46
2022/12/21 12:17:11;;;;;;;0.30;0.30;;;25.00;49.90;;;;;;4069770;29;20047;-45
2022/12/21 12:20:03;;;;;;;0.38;0.38;;;25.00;49.80;;;;;;4070517;29;20047;-48
2022/12/21 12:22:41;;;;;;;0.30;0.30;;;25.00;49.90;;;;;;4068505;28;20039;-49
2022/12/21 12:25:23;;;;;;;0.52;0.30;;;24.90;49.90;;;;;;4067926;29;20067;-49
2022/12/21 12:28:13;;;;;;;0.35;0.20;;;24.90;49.90;;;;;;4070754;29;20460;-45
2022/12/21 12:30:52;;;;;;;0.73;0.30;;;24.90;49.90;;;;;;4064269;29;20475;-48
2022/12/21 12:33:40;;;;;;;0.30;0.30;;;24.90;49.90;;;;;;4067157;29;20523;-47
2022/12/21 12:36:11;;;;;;;0.35;0.35;;;24.90;50.00;;;;;;4068822;29;20496;-49
2022/12/21 12:38:36;;;;;;;0.20;0.20;;;24.90;50.00;;;;;;4064145;29;20118;-48
2022/12/21 12:41:12;;;;;;;0.38;0.38;;;24.90;50.00;;;;;;4066038;29;20487;-46
2022/12/21 12:43:59;;;;;;;0.38;0.32;;;24.80;50.00;;;;;;4060720;29;20057;-49
2022/12/21 12:46:33;;;;;;;0.47;0.38;;;24.80;50.00;;;;;;4062633;29;20048;-42
2022/12/21 12:49:08;;;;;;;0.40;0.40;;;24.80;50.10;;;;;;4064958;29;20571;-38
2022/12/21 12:52:12;;;;;;;1.10;0.65;;;24.80;50.20;;;;;;4061773;29;20548;-45
2022/12/21 12:54:59;;;;;;;0.32;0.32;;;24.80;50.20;;;;;;4058165;29;20337;-39
2022/12/21 12:57:33;;;;;;;2.90;0.65;;;24.80;50.20;;;;;;4060824;29;20392;-43
2022/12/21 13:00:09;;;;;;;3.65;0.90;;;24.70;50.20;;;;;;4058801;29;20484;-43
2022/12/21 13:03:08;;;;;;;3.65;0.63;;;24.80;50.50;;;;;;4060601;29;20051;-46
2022/12/21 13:05:30;;;;;;;2.67;0.70;;;24.70;50.60;;;;;;4057984;29;20257;-47
2022/12/21 13:08:41;;;;;;;3.08;0.60;;;24.70;50.80;;;;;;4059817;29;20075;-39
2022/12/21 13:11:25;;;;;;;3.40;0.73;;;24.80;51.00;;;;;;4050965;29;20040;-45
2022/12/21 13:13:53;;;;;;;;;;;24.80;51.00;;;;;;4059678;29;20364;-39
2022/12/21 13:16:15;;;;;;;1.25;0.88;;;24.80;51.10;;;;;;4061494;29;19943;-41
2022/12/21 13:18:58;;;;;;;2.58;0.82;;;24.80;51.20;;;;;;4057479;29;20052;-42
2022/12/21 13:21:25;;;;;;;2.90;0.63;;;24.80;51.10;;;;;;4055933;29;20067;-40
2022/12/21 13:24:18;;;;;;;16.27;3.28;;;24.80;51.20;;;;;;4059902;29;20035;-42
2022/12/21 13:26:47;;;;;;;4.53;1.30;;;24.80;51.50;;;;;;4061095;28;20035;-41
2022/12/21 13:29:47;;;;;;;4.45;1.02;;;24.80;51.60;;;;;;4058477;29;20056;-41
2022/12/21 13:32:18;;;;;;;10.82;1.55;;;24.80;51.60;;;;;;4060579;29;20393;-41
2022/12/21 13:35:03;;;;;;;6.15;0.75;;;24.80;51.70;;;;;;4062480;29;20607;-42
2022/12/21 13:37:26;;;;;;;17.88;1.98;;;24.80;51.80;;;;;;4067215;29;20047;-43
2022/12/21 13:40:15;;;;;;;10.45;1.60;;;24.80;51.80;;;;;;4066570;29;20530;-45
2022/12/21 13:43:13;;;;;;;5.47;1.17;;;24.80;51.90;;;;;;4066327;29;20063;-42
2022/12/21 13:45:39;;;;;;;7.43;1.08;;;24.80;51.90;;;;;;4061548;29;20047;-42
2022/12/21 13:48:03;;;;;;;2.50;0.80;;;24.80;51.80;;;;;;4068854;28;20051;-42
2022/12/21 13:50:37;;;;;;;;;;;24.80;51.80;;;;;;4061160;29;20476;-42
2022/12/21 13:53:16;;;;;;;4.80;0.90;;;24.70;51.70;;;;;;4068515;29;19914;-41
2022/12/21 13:56:04;;;;;;;5.90;0.85;;;24.70;51.80;;;;;;4068105;29;20052;-40
2022/12/21 13:58:49;;;;;;;6.65;0.75;;;24.80;51.90;;;;;;4067528;29;20071;-44
2022/12/21 14:01:32;;;;;;;3.90;0.70;;;24.70;51.70;;;;;;4067640;29;20044;-45